Jennifer — WDF6480 — position and weather

sailwx.info

Track history (hours):
 
Tides and Currents Weather Stations Pressure Air Temp Water Temp Dewpoint Dewpoint Depression Visibility Wind Speed Wind Dir Waves Ship Positions

Jennifer

Owner: John W. Stone Oil Distributor, L.L.C., Gretna, LA. More information available from US FCC via Universal Licensing System and Coast Guard Vessel Documentation Center.

Last reported at 2017-Jan-23 18:34 UTC. Time now 2017-Jan-23 19:04 UTC.
Position N 30°06' W 093°18'.

Length 17 m; draft 3 m.

Type: Tug. MMSI: 367474690.

Date/timePositionNaut miles runAvg speedWind from/ knotsBaromVisibWave heightAir tempDewpointWater temp
2017-Jan-23 18:34N 30°06' W 093°18'0 0.0
2017-Jan-23 17:33N 30°06' W 093°18'0 0.0
2017-Jan-23 16:33N 30°06' W 093°18'0 0.0
2017-Jan-23 15:33N 30°06' W 093°18'0 0.0
2017-Jan-23 14:33N 30°06' W 093°18'0 0.3
2017-Jan-23 13:33N 30°06' W 093°18'1 1.2
2017-Jan-23 12:33N 30°06' W 093°19'5 4.9
2017-Jan-23 11:33N 30°01' W 093°20'9 4.7
2017-Jan-23 09:32N 29°51' W 093°21'0 0.0
2017-Jan-22 11:33N 29°51' W 093°21'8 7.5
2017-Jan-22 10:33N 29°59' W 093°20'7 7.2
2017-Jan-22 09:33N 30°06' W 093°19'3 3.4
2017-Jan-22 08:33N 30°04' W 093°16'4 4.4
2017-Jan-22 07:33N 30°00' W 093°13'1 0.7
2017-Jan-22 06:33N 29°60' W 093°13'0 0.0
2017-Jan-22 05:33N 29°60' W 093°13'40 4.0
2017-Jan-21 19:31N 29°54' W 092°27'5 4.7
2017-Jan-21 18:34N 29°52' W 092°22'4 4.4
2017-Jan-21 17:33N 29°50' W 092°18'5 4.9
2017-Jan-21 16:33N 29°47' W 092°13'2 1.7
2017-Jan-21 15:33N 29°47' W 092°11'0 0.0
2017-Jan-21 14:33N 29°47' W 092°11'0 0.0
2017-Jan-21 13:33N 29°47' W 092°11'0 0.0
2017-Jan-21 12:33N 29°47' W 092°11'0 0.0
2017-Jan-21 11:33N 29°47' W 092°11'0 0.0
2017-Jan-21 10:33N 29°47' W 092°11'0 0.0
2017-Jan-21 09:33N 29°47' W 092°11'0 0.0
2017-Jan-21 08:33N 29°47' W 092°11'0 0.0
2017-Jan-21 07:33N 29°47' W 092°11'0 0.1
2017-Jan-21 06:33N 29°47' W 092°11'0 0.0
2017-Jan-21 05:33N 29°47' W 092°11'0 0.0
2017-Jan-21 04:33N 29°47' W 092°11'1 0.7
2017-Jan-21 03:33N 29°47' W 092°10'4 3.8
2017-Jan-21 02:33N 29°48' W 092°06'0 0.0
2017-Jan-21 01:33N 29°48' W 092°06'4 4.2
2017-Jan-21 00:33N 29°49' W 092°01'5 4.9
2017-Jan-20 23:33N 29°51' W 091°56'52 2.1
2017-Jan-19 22:23N 29°36' W 090°58'4 4.6
2017-Jan-19 21:33N 29°34' W 090°55'5 4.9
2017-Jan-19 20:33N 29°32' W 090°50'4 4.5
2017-Jan-19 19:33N 29°34' W 090°45'3 3.4
2017-Jan-19 18:33N 29°36' W 090°43'4 3.8
2017-Jan-19 17:33N 29°35' W 090°38'3 2.8
2017-Jan-19 16:34N 29°35' W 090°35'  
Track history (hours):
 
Tides and Currents Weather Stations Pressure Air Temp Water Temp Dewpoint Dewpoint Depression Visibility Wind Speed Wind Dir Waves Ship Positions

Jennifer

Owner: John W. Stone Oil Distributor, L.L.C., Gretna, LA. More information available from US FCC via Universal Licensing System and Coast Guard Vessel Documentation Center.

Last reported at 2017-Jan-23 18:34 UTC. Time now 2017-Jan-23 19:04 UTC.
Position N 30°06' W 093°18'.

Length 17 m; draft 3 m.

Type: Tug. MMSI: 367474690.

Date/timePositionNaut miles runAvg speedWind from/ knotsBaromVisibWave heightAir tempDewpointWater temp
2017-Jan-23 18:34N 30°06' W 093°18'0 0.0
2017-Jan-23 17:33N 30°06' W 093°18'0 0.0
2017-Jan-23 16:33N 30°06' W 093°18'0 0.0
2017-Jan-23 15:33N 30°06' W 093°18'0 0.0
2017-Jan-23 14:33N 30°06' W 093°18'0 0.3
2017-Jan-23 13:33N 30°06' W 093°18'1 1.2
2017-Jan-23 12:33N 30°06' W 093°19'5 4.9
2017-Jan-23 11:33N 30°01' W 093°20'9 4.7
2017-Jan-23 09:32N 29°51' W 093°21'0 0.0
2017-Jan-22 11:33N 29°51' W 093°21'8 7.5
2017-Jan-22 10:33N 29°59' W 093°20'7 7.2
2017-Jan-22 09:33N 30°06' W 093°19'3 3.4
2017-Jan-22 08:33N 30°04' W 093°16'4 4.4
2017-Jan-22 07:33N 30°00' W 093°13'1 0.7
2017-Jan-22 06:33N 29°60' W 093°13'0 0.0
2017-Jan-22 05:33N 29°60' W 093°13'40 4.0
2017-Jan-21 19:31N 29°54' W 092°27'5 4.7
2017-Jan-21 18:34N 29°52' W 092°22'4 4.4
2017-Jan-21 17:33N 29°50' W 092°18'5 4.9
2017-Jan-21 16:33N 29°47' W 092°13'2 1.7
2017-Jan-21 15:33N 29°47' W 092°11'0 0.0
2017-Jan-21 14:33N 29°47' W 092°11'0 0.0
2017-Jan-21 13:33N 29°47' W 092°11'0 0.0
2017-Jan-21 12:33N 29°47' W 092°11'0 0.0
2017-Jan-21 11:33N 29°47' W 092°11'0 0.0
2017-Jan-21 10:33N 29°47' W 092°11'0 0.0
2017-Jan-21 09:33N 29°47' W 092°11'0 0.0
2017-Jan-21 08:33N 29°47' W 092°11'0 0.0
2017-Jan-21 07:33N 29°47' W 092°11'0 0.1
2017-Jan-21 06:33N 29°47' W 092°11'0 0.0
2017-Jan-21 05:33N 29°47' W 092°11'0 0.0
2017-Jan-21 04:33N 29°47' W 092°11'1 0.7
2017-Jan-21 03:33N 29°47' W 092°10'4 3.8
2017-Jan-21 02:33N 29°48' W 092°06'0 0.0
2017-Jan-21 01:33N 29°48' W 092°06'4 4.2
2017-Jan-21 00:33N 29°49' W 092°01'5 4.9
2017-Jan-20 23:33N 29°51' W 091°56'52 2.1
2017-Jan-19 22:23N 29°36' W 090°58'4 4.6
2017-Jan-19 21:33N 29°34' W 090°55'5 4.9
2017-Jan-19 20:33N 29°32' W 090°50'4 4.5
2017-Jan-19 19:33N 29°34' W 090°45'3 3.4
2017-Jan-19 18:33N 29°36' W 090°43'4 3.8
2017-Jan-19 17:33N 29°35' W 090°38'3 2.8
2017-Jan-19 16:34N 29°35' W 090°35'  

Dump ship's entire track history